Time;durP1;ratioP1;P1;durP2;ratioP2;P2;SDS_P1;SDS_P2;PMS_P1;PMS_P2;Temp;Humidity;BMP_temperature;BMP_pressure;BME280_temperature;BME280_humidity;BME280_pressure;Samples;Min_cycle;Max_cycle;Signal;HPM_P1;HPM_P2
2024/01/15 00:01:32;;;;;;;86.27;35.77;;;;;;;0.69;99.62;99966.81;5073688;28;20202;-75
2024/01/15 00:03:59;;;;;;;90.00;35.07;;;;;;;0.76;100.00;99962.81;5074047;28;20186;-75
2024/01/15 00:06:26;;;;;;;90.37;34.77;;;;;;;0.76;99.99;99958.41;5073920;28;20190;-75
2024/01/15 00:08:53;;;;;;;105.80;38.77;;;;;;;0.78;99.92;99953.84;5074417;28;20617;-74
2024/01/15 00:11:20;;;;;;;97.83;36.83;;;;;;;0.84;99.75;99950.78;5074140;28;20191;-74
2024/01/15 00:13:46;;;;;;;87.50;35.23;;;;;;;0.86;99.58;99954.13;5073859;28;20182;-75
2024/01/15 00:16:12;;;;;;;95.30;36.77;;;;;;;0.87;99.40;99945.31;5072641;28;20532;-75
2024/01/15 00:18:39;;;;;;;93.60;35.07;;;;;;;0.88;99.69;99940.88;5073443;28;20743;-75
2024/01/15 00:21:05;;;;;;;101.57;39.23;;;;;;;0.95;99.59;99946.53;5073337;28;20210;-75
2024/01/15 00:23:32;;;;;;;84.53;37.67;;;;;;;0.97;99.39;99944.66;5073470;28;20592;-75
2024/01/15 00:25:58;;;;;;;88.67;34.77;;;;;;;0.91;99.62;99930.97;5073420;28;20597;-75
2024/01/15 00:28:25;;;;;;;92.53;37.17;;;;;;;0.94;99.60;99929.91;5073298;28;20246;-74
2024/01/15 00:30:51;;;;;;;90.87;34.93;;;;;;;1.00;99.29;99931.25;5073359;28;20182;-74
2024/01/15 00:33:18;;;;;;;102.77;31.97;;;;;;;0.95;99.37;99930.75;5073353;28;20264;-75
2024/01/15 00:35:44;;;;;;;80.93;33.57;;;;;;;0.95;99.35;99918.44;5073527;28;20219;-75
2024/01/15 00:38:11;;;;;;;80.20;31.40;;;;;;;0.93;99.36;99923.00;5073209;28;20331;-74
2024/01/15 00:40:37;;;;;;;75.90;32.27;;;;;;;0.99;98.99;99921.69;5073155;28;20263;-75
2024/01/15 00:43:04;;;;;;;84.77;34.57;;;;;;;0.96;99.04;99930.66;5073486;28;20191;-75
2024/01/15 00:45:30;;;;;;;76.07;33.60;;;;;;;0.98;99.01;99922.66;5073711;28;20247;-75
2024/01/15 00:47:56;;;;;;;78.13;31.67;;;;;;;0.99;99.26;99921.69;5073123;28;20624;-75
2024/01/15 00:50:23;;;;;;;77.83;29.73;;;;;;;0.93;98.96;99925.63;5073351;28;20186;-75
2024/01/15 00:52:49;;;;;;;81.50;34.03;;;;;;;0.95;99.25;99921.06;5073113;28;20603;-75
2024/01/15 00:55:16;;;;;;;90.10;34.47;;;;;;;1.01;99.19;99922.44;5073620;28;20195;-75
2024/01/15 00:57:42;;;;;;;69.93;31.03;;;;;;;1.06;98.89;99925.56;5073021;28;20620;-74
2024/01/15 01:00:09;;;;;;;71.70;29.83;;;;;;;1.02;98.52;99924.94;5073058;28;20214;-75
2024/01/15 01:02:36;;;;;;;78.63;32.13;;;;;;;1.00;98.54;99918.09;5073211;28;20209;-75
2024/01/15 01:05:03;;;;;;;64.67;30.53;;;;;;;1.07;98.70;99924.59;5073033;28;20604;-75
2024/01/15 01:07:29;;;;;;;58.43;28.03;;;;;;;1.02;98.49;99930.19;5072950;28;20626;-75
2024/01/15 01:09:56;;;;;;;57.50;28.67;;;;;;;1.04;98.34;99923.03;5072987;28;20240;-75
2024/01/15 01:12:22;;;;;;;59.97;27.90;;;;;;;1.06;98.07;99918.50;5073250;28;20171;-74
2024/01/15 01:14:49;;;;;;;64.23;28.00;;;;;;;1.01;98.33;99920.63;5073451;28;20204;-75
2024/01/15 01:17:15;;;;;;;63.93;25.97;;;;;;;1.00;98.42;99918.09;5073364;28;20248;-74
2024/01/15 01:19:42;;;;;;;53.20;25.10;;;;;;;0.92;98.56;99900.25;5072725;28;20286;-75
2024/01/15 01:22:09;;;;;;;48.83;22.60;;;;;;;0.98;98.35;99898.97;5072778;28;20693;-75
2024/01/15 01:24:35;;;;;;;61.27;25.10;;;;;;;1.00;98.22;99899.69;5072861;28;20561;-75
2024/01/15 01:27:02;;;;;;;51.10;24.73;;;;;;;1.00;97.94;99905.78;5073678;28;20187;-75
2024/01/15 01:29:28;;;;;;;55.23;25.40;;;;;;;0.96;97.90;99901.72;5076938;28;20211;-75
2024/01/15 01:31:56;;;;;;;58.77;27.43;;;;;;;0.97;97.78;99895.50;5077192;28;20244;-75
2024/01/15 01:34:23;;;;;;;57.77;26.83;;;;;;;0.97;98.00;99902.53;5077158;28;20218;-75
2024/01/15 01:36:49;;;;;;;61.60;26.87;;;;;;;0.96;97.65;99892.97;5076556;28;20197;-75
2024/01/15 01:39:16;;;;;;;75.47;29.50;;;;;;;1.01;97.67;99894.31;5076692;28;20206;-74
2024/01/15 01:41:43;;;;;;;63.63;28.30;;;;;;;0.99;98.12;99900.63;5076916;28;20284;-74
2024/01/15 01:44:09;;;;;;;69.60;29.20;;;;;;;1.01;97.97;99896.94;5076436;28;20232;-74
2024/01/15 01:46:40;;;;;;;72.43;29.80;;;;;;;0.98;97.83;99899.78;5075432;28;20244;-74
2024/01/15 01:49:08;;;;;;;62.77;27.17;;;;;;;1.00;98.05;99903.16;5076283;28;20268;-74
2024/01/15 01:51:37;;;;;;;62.53;28.70;;;;;;;1.00;97.95;99902.31;5075181;28;20191;-75
2024/01/15 01:54:05;;;;;;;62.93;28.47;;;;;;;0.97;98.35;99897.28;5076207;28;20274;-75
2024/01/15 01:56:32;;;;;;;69.80;29.60;;;;;;;1.00;97.90;99904.94;5076122;28;20210;-75
2024/01/15 01:59:00;;;;;;;57.37;25.90;;;;;;;0.98;98.12;99912.94;5076087;28;20554;-74
2024/01/15 02:01:28;;;;;;;70.73;28.27;;;;;;;1.05;97.68;99905.47;5076487;28;20199;-75
2024/01/15 02:03:56;;;;;;;63.43;27.83;;;;;;;0.97;97.73;99913.06;5076013;28;20186;-74
2024/01/15 02:06:23;;;;;;;73.70;28.73;;;;;;;1.00;97.38;99910.22;5075993;28;20194;-75
2024/01/15 02:08:50;;;;;;;61.63;28.37;;;;;;;0.96;97.73;99908.75;5075953;28;20202;-74
2024/01/15 02:11:17;;;;;;;64.47;28.63;;;;;;;0.95;98.06;99902.66;5075901;28;20735;-75
2024/01/15 02:13:44;;;;;;;72.37;29.50;;;;;;;0.96;98.14;99906.97;5075863;28;20232;-75
2024/01/15 02:16:10;;;;;;;55.67;27.77;;;;;;;0.99;97.83;99911.16;5075810;28;20190;-75
2024/01/15 02:18:41;;;;;;;61.40;26.53;;;;;;;0.96;97.88;99916.66;5075757;28;20207;-74
2024/01/15 02:21:08;;;;;;;62.40;27.13;;;;;;;0.99;97.95;99904.09;5075838;28;20225;-74
2024/01/15 02:23:34;;;;;;;59.57;27.40;;;;;;;0.99;97.45;99908.53;5076198;28;20189;-75
2024/01/15 02:26:01;;;;;;;59.97;26.57;;;;;;;0.93;97.63;99909.81;5075927;28;20252;-75
2024/01/15 02:28:28;;;;;;;58.87;25.90;;;;;;;0.97;97.49;99910.44;5075535;28;20206;-74
2024/01/15 02:30:54;;;;;;;55.83;25.10;;;;;;;1.01;97.34;99904.00;5075780;28;20646;-74
2024/01/15 02:33:21;;;;;;;53.17;25.70;;;;;;;1.00;97.16;99902.31;5076107;28;20278;-75
2024/01/15 02:35:49;;;;;;;59.57;26.40;;;;;;;0.96;97.09;99906.97;5075435;28;20186;-75
2024/01/15 02:38:16;;;;;;;53.53;24.80;;;;;;;0.91;96.90;99903.81;5075162;28;20210;-75
2024/01/15 02:40:47;;;;;;;64.40;25.17;;;;;;;0.88;97.01;99909.31;5074774;28;20190;-75
2024/01/15 02:43:13;;;;;;;56.47;24.37;;;;;;;0.90;96.91;99900.34;5075364;28;20236;-75
2024/01/15 02:45:40;;;;;;;49.03;23.67;;;;;;;0.88;96.76;99901.41;5075307;28;20191;-75
2024/01/15 02:48:06;;;;;;;57.83;27.00;;;;;;;0.83;96.59;99893.00;5075433;28;20272;-74
2024/01/15 02:50:33;;;;;;;51.23;25.23;;;;;;;0.87;97.09;99892.69;5075189;28;20239;-74
2024/01/15 02:52:59;;;;;;;57.87;25.43;;;;;;;0.89;96.98;99903.09;5075148;28;20193;-74
2024/01/15 02:55:29;;;;;;;63.87;25.03;;;;;;;0.91;96.53;99894.16;5075062;28;20719;-74
2024/01/15 02:57:55;;;;;;;63.13;28.00;;;;;;;0.84;96.75;99887.66;5075195;28;20617;-74
2024/01/15 03:00:22;;;;;;;60.97;26.97;;;;;;;0.80;97.14;99890.63;5075311;28;20260;-75
2024/01/15 03:02:50;;;;;;;62.20;27.30;;;;;;;0.83;97.04;99896.50;5074869;28;20209;-74
2024/01/15 03:05:17;;;;;;;62.83;27.00;;;;;;;0.88;96.91;99890.91;5075194;28;20235;-74
2024/01/15 03:07:44;;;;;;;72.33;29.43;;;;;;;0.83;97.69;99896.50;5075330;28;20198;-75
2024/01/15 03:10:10;;;;;;;63.00;27.63;;;;;;;0.89;97.61;99903.09;5074828;28;20193;-75
2024/01/15 03:12:37;;;;;;;65.77;27.97;;;;;;;0.90;97.85;99896.88;5074765;28;20182;-75
2024/01/15 03:15:04;;;;;;;63.50;27.67;;;;;;;0.92;97.65;99900.25;5075217;28;20191;-75
2024/01/15 03:17:30;;;;;;;65.77;26.80;;;;;;;0.93;97.73;99898.47;5074599;28;20187;-74
2024/01/15 03:19:57;;;;;;;70.53;27.80;;;;;;;0.96;97.47;99900.84;5074617;28;20273;-74
2024/01/15 03:22:24;;;;;;;58.47;26.67;;;;;;;0.98;97.40;99891.88;5073228;28;20236;-74
2024/01/15 03:24:50;;;;;;;61.70;28.03;;;;;;;0.93;97.37;99894.84;5074500;28;20191;-74
2024/01/15 03:27:17;;;;;;;59.23;25.90;;;;;;;0.88;97.51;99898.78;5075150;28;20190;-74
2024/01/15 03:29:43;;;;;;;59.50;24.70;;;;;;;0.93;97.63;99898.47;5074664;28;20186;-75
2024/01/15 03:32:10;;;;;;;54.10;24.43;;;;;;;0.95;97.66;99894.75;5074405;28;20175;-75
2024/01/15 03:34:36;;;;;;;59.83;25.97;;;;;;;0.96;97.77;99912.22;5074577;28;20592;-75
2024/01/15 03:37:03;;;;;;;58.57;25.23;;;;;;;1.00;97.50;99899.69;5074294;28;20191;-75
2024/01/15 03:39:30;;;;;;;49.63;23.97;;;;;;;0.88;97.39;99902.25;5074714;28;20226;-74
2024/01/15 03:41:56;;;;;;;53.33;24.10;;;;;;;0.94;97.62;99898.31;5074084;28;20214;-75
2024/01/15 03:44:23;;;;;;;51.13;23.63;;;;;;;1.01;97.50;99894.31;5074147;28;20191;-75
2024/01/15 03:46:50;;;;;;;45.93;21.47;;;;;;;1.07;96.69;99904.38;5074075;28;20194;-75
2024/01/15 03:49:16;;;;;;;35.40;20.23;;;;;;;1.06;96.73;99891.34;5073986;28;20214;-74
2024/01/15 03:51:43;;;;;;;45.37;23.00;;;;;;;0.98;96.69;99894.53;5074015;28;20202;-74
2024/01/15 03:54:09;;;;;;;45.43;21.83;;;;;;;1.05;96.58;99887.03;5074243;28;20183;-74
2024/01/15 03:56:36;;;;;;;37.73;20.03;;;;;;;1.09;96.20;99889.34;5073884;28;20183;-74
2024/01/15 03:59:02;;;;;;;35.50;20.60;;;;;;;1.01;96.42;99890.84;5073831;28;20709;-75
2024/01/15 04:01:29;;;;;;;42.43;20.20;;;;;;;1.04;96.32;99893.25;5074058;28;20195;-74
2024/01/15 04:03:56;;;;;;;46.93;21.00;;;;;;;1.09;96.13;99888.50;5074062;28;20592;-75
2024/01/15 04:06:22;;;;;;;45.97;21.67;;;;;;;1.05;96.39;99887.88;5073965;28;20549;-75
2024/01/15 04:08:49;;;;;;;54.73;25.13;;;;;;;1.06;96.49;99886.09;5073881;28;20214;-74
2024/01/15 04:11:15;;;;;;;33.40;18.57;;;;;;;1.07;96.23;99880.69;5074180;28;20519;-74
2024/01/15 04:13:41;;;;;;;34.93;19.97;;;;;;;1.05;96.30;99872.09;5073884;28;20716;-74
2024/01/15 04:16:08;;;;;;;44.43;21.87;;;;;;;1.11;96.22;99883.94;5073598;28;20221;-74
2024/01/15 04:18:34;;;;;;;49.97;20.67;;;;;;;1.07;96.40;99864.91;5073471;28;20210;-74
2024/01/15 04:21:04;;;;;;;40.27;19.97;;;;;;;1.05;96.35;99858.94;5072074;28;20204;-74
2024/01/15 04:23:32;;;;;;;36.07;19.87;;;;;;;1.02;96.21;99863.59;5074209;28;20259;-74
2024/01/15 04:25:58;;;;;;;39.70;18.73;;;;;;;1.08;96.33;99863.13;5073712;28;20613;-74
2024/01/15 04:28:24;;;;;;;28.70;17.13;;;;;;;1.12;96.12;99857.53;5073857;28;20264;-74
2024/01/15 04:30:51;;;;;;;33.60;18.13;;;;;;;1.05;96.13;99855.47;5073424;28;20600;-74
2024/01/15 04:33:17;;;;;;;29.70;16.53;;;;;;;1.10;96.00;99854.19;5074106;28;20228;-74
2024/01/15 04:35:44;;;;;;;45.50;19.10;;;;;;;1.09;96.20;99849.00;5073324;28;20559;-74
2024/01/15 04:38:10;;;;;;;37.93;16.37;;;;;;;1.14;95.92;99849.53;5073247;28;20215;-74
2024/01/15 04:40:37;;;;;;;28.20;16.53;;;;;;;1.10;95.99;99846.28;5073569;28;20190;-74
2024/01/15 04:43:03;;;;;;;33.67;17.63;;;;;;;1.14;95.65;99845.09;5073156;28;20263;-74
2024/01/15 04:45:30;;;;;;;38.70;18.50;;;;;;;1.10;96.27;99843.66;5073542;28;20543;-74
2024/01/15 04:47:57;;;;;;;35.33;18.10;;;;;;;1.16;96.06;99845.81;5073162;28;20702;-74
2024/01/15 04:50:24;;;;;;;39.43;19.00;;;;;;;1.16;95.94;99852.88;5073397;28;20261;-74
2024/01/15 04:52:50;;;;;;;44.43;20.43;;;;;;;1.14;96.17;99853.00;5073727;28;20637;-74
2024/01/15 04:55:17;;;;;;;37.63;20.50;;;;;;;1.11;96.30;99844.47;5073151;28;20194;-74
2024/01/15 04:57:43;;;;;;;36.67;19.43;;;;;;;1.09;96.48;99838.50;5073338;28;20206;-74
2024/01/15 05:00:12;;;;;;;43.80;22.07;;;;;;;1.14;96.23;99837.19;5073084;28;20269;-74
2024/01/15 05:02:38;;;;;;;42.87;21.37;;;;;;;1.09;96.40;99836.69;5075155;28;20293;-75
2024/01/15 05:05:05;;;;;;;34.50;21.43;;;;;;;1.19;96.25;99837.66;5077269;28;20240;-75
2024/01/15 05:07:31;;;;;;;39.07;21.40;;;;;;;1.12;96.48;99827.72;5077387;28;20175;-74
2024/01/15 05:09:58;;;;;;;40.47;20.57;;;;;;;1.14;96.09;99831.94;5077101;28;20197;-74
2024/01/15 05:12:25;;;;;;;33.37;21.67;;;;;;;1.10;96.47;99832.28;5077620;28;20668;-74
2024/01/15 05:14:51;;;;;;;35.23;21.37;;;;;;;1.10;96.47;99827.84;5077050;28;20190;-74
2024/01/15 05:17:17;;;;;;;42.40;21.70;;;;;;;1.16;96.50;99823.91;5076913;28;20191;-73
2024/01/15 05:19:44;;;;;;;50.13;21.93;;;;;;;1.14;96.33;99823.19;5076890;28;20273;-74
2024/01/15 05:22:11;;;;;;;39.60;21.63;;;;;;;1.16;96.30;99818.66;5077032;28;20202;-74
2024/01/15 05:24:37;;;;;;;36.43;19.73;;;;;;;1.15;96.19;99823.06;5076834;28;20190;-74
2024/01/15 05:27:04;;;;;;;38.13;19.57;;;;;;;1.13;96.16;99826.78;5076733;28;20365;-74
2024/01/15 05:29:30;;;;;;;35.10;17.93;;;;;;;1.14;96.07;99818.78;5076674;28;20217;-74
2024/01/15 05:31:56;;;;;;;34.60;18.00;;;;;;;1.14;95.99;99824.03;5076977;28;20175;-74
2024/01/15 05:34:27;;;;;;;33.77;17.03;;;;;;;1.09;96.26;99813.00;5077242;28;20179;-74
2024/01/15 05:36:54;;;;;;;44.47;18.27;;;;;;;1.06;95.92;99815.84;5077377;28;20182;-74
2024/01/15 05:39:20;;;;;;;28.30;17.00;;;;;;;1.11;95.74;99816.34;5076516;28;20555;-74
2024/01/15 05:41:49;;;;;;;32.13;17.60;;;;;;;1.16;96.17;99821.28;5076687;28;20182;-74
2024/01/15 05:44:16;;;;;;;29.90;16.87;;;;;;;1.17;95.84;99820.31;5076714;28;20727;-74
2024/01/15 05:46:42;;;;;;;27.87;15.13;;;;;;;1.18;96.06;99822.00;5075791;28;20189;-74
2024/01/15 05:49:09;;;;;;;23.23;16.03;;;;;;;1.17;95.46;99826.44;5076273;28;20206;-74
2024/01/15 05:51:36;;;;;;;39.73;17.23;;;;;;;1.12;95.47;99811.94;5075099;28;20220;-74
2024/01/15 05:54:02;;;;;;;31.87;16.80;;;;;;;1.14;96.08;99821.41;5076788;28;20190;-74
2024/01/15 05:56:29;;;;;;;30.07;17.07;;;;;;;1.13;95.70;99811.81;5076286;28;20736;-75
2024/01/15 05:58:55;;;;;;;26.40;17.43;;;;;;;1.07;95.93;99819.31;5076334;28;20210;-74
2024/01/15 06:01:21;;;;;;;29.63;17.57;;;;;;;1.09;95.87;99825.31;5075508;28;20248;-74
2024/01/15 06:03:48;;;;;;;36.07;17.03;;;;;;;1.11;95.67;99815.50;5076042;28;20222;-74
2024/01/15 06:06:15;;;;;;;25.63;15.97;;;;;;;1.17;96.07;99813.28;5076348;28;20225;-74
2024/01/15 06:08:41;;;;;;;35.90;18.83;;;;;;;1.23;95.38;99818.06;5075287;28;20248;-74
2024/01/15 06:11:08;;;;;;;37.70;18.90;;;;;;;1.20;95.52;99814.81;5075989;28;20585;-74
2024/01/15 06:13:34;;;;;;;39.30;17.90;;;;;;;1.16;95.71;99808.97;5076150;28;20642;-74
2024/01/15 06:16:01;;;;;;;30.37;17.37;;;;;;;1.21;95.56;99800.72;5074556;28;20260;-74
2024/01/15 06:18:27;;;;;;;27.87;17.40;;;;;;;1.21;95.24;99801.56;5076186;28;20256;-74
2024/01/15 06:20:54;;;;;;;33.53;17.40;;;;;;;1.22;95.36;99810.31;5075695;28;20657;-74
2024/01/15 06:23:20;;;;;;;45.53;18.40;;;;;;;1.15;95.75;99803.78;5075876;28;20217;-74
2024/01/15 06:25:47;;;;;;;36.40;17.83;;;;;;;1.17;95.99;99807.16;5075869;28;20260;-74
2024/01/15 06:28:13;;;;;;;32.87;19.13;;;;;;;1.16;95.55;99803.69;5075476;28;20696;-74
2024/01/15 06:30:40;;;;;;;31.83;17.27;;;;;;;1.22;95.55;99791.88;5076084;28;20235;-74
2024/01/15 06:33:06;;;;;;;39.43;19.67;;;;;;;1.29;95.46;99786.03;5076025;28;20567;-75
2024/01/15 06:35:34;;;;;;;40.53;19.70;;;;;;;1.24;95.36;99788.16;5075499;28;20613;-75
2024/01/15 06:38:00;;;;;;;48.80;20.13;;;;;;;1.23;95.47;99788.28;5075399;28;20694;-75
2024/01/15 06:40:27;;;;;;;27.47;18.57;;;;;;;1.23;95.47;99793.56;5075679;28;20197;-75
2024/01/15 06:42:53;;;;;;;30.83;17.83;;;;;;;1.21;95.57;99795.44;5075917;28;20206;-74
2024/01/15 06:45:20;;;;;;;33.33;19.03;;;;;;;1.18;95.77;99793.06;5075849;28;20195;-74
2024/01/15 06:47:46;;;;;;;33.43;18.43;;;;;;;1.22;96.02;99790.09;5075519;28;20202;-74
2024/01/15 06:50:13;;;;;;;29.87;17.30;;;;;;;1.23;95.44;99790.94;5075196;28;20225;-74
2024/01/15 06:52:39;;;;;;;33.67;17.27;;;;;;;1.23;95.16;99794.38;5075479;28;20178;-74
2024/01/15 06:55:06;;;;;;;27.13;15.33;;;;;;;1.24;95.51;99787.31;5075097;28;20193;-75
2024/01/15 06:57:32;;;;;;;22.20;14.50;;;;;;;1.21;95.25;99795.44;5074980;28;20289;-74
2024/01/15 06:59:59;;;;;;;24.93;14.63;;;;;;;1.15;95.45;99790.63;5074968;28;20191;-74
2024/01/15 07:02:26;;;;;;;22.70;13.03;;;;;;;1.14;95.56;99804.78;5074950;28;20213;-74
2024/01/15 07:04:53;;;;;;;15.93;10.90;;;;;;;1.21;95.25;99796.28;5075199;28;20205;-75
2024/01/15 07:07:19;;;;;;;11.83;10.60;;;;;;;1.21;95.21;99800.72;5075347;28;20186;-74
2024/01/15 07:09:46;;;;;;;20.27;9.23;;;;;;;1.20;94.83;99799.88;5075123;28;20262;-74
2024/01/15 07:12:13;;;;;;;9.37;8.47;;;;;;;1.20;94.94;99804.28;5074800;28;20225;-74
2024/01/15 07:14:39;;;;;;;13.10;8.33;;;;;;;1.22;94.81;99799.78;5074674;28;20204;-74
2024/01/15 07:17:06;;;;;;;7.90;6.93;;;;;;;1.20;94.76;99804.28;5074703;28;20205;-74
2024/01/15 07:19:32;;;;;;;13.23;8.23;;;;;;;1.22;94.71;99802.41;5074593;28;20222;-74
2024/01/15 07:22:00;;;;;;;7.67;7.07;;;;;;;1.25;94.59;99794.25;5074440;28;20193;-74
2024/01/15 07:24:26;;;;;;;7.40;6.90;;;;;;;1.22;94.84;99802.41;5074827;28;20273;-74
2024/01/15 07:26:53;;;;;;;9.87;7.33;;;;;;;1.19;94.80;99797.38;5074502;28;20190;-75
2024/01/15 07:29:19;;;;;;;6.83;6.10;;;;;;;1.21;94.65;99800.72;5074872;28;20215;-74
2024/01/15 07:31:52;;;;;;;7.70;7.30;;;;;;;1.11;94.53;99800.56;5074380;28;20193;-74
2024/01/15 07:34:19;;;;;;;8.53;7.87;;;;;;;1.17;95.09;99799.28;5074342;28;20258;-74
2024/01/15 07:36:45;;;;;;;8.90;8.17;;;;;;;1.13;95.10;99803.94;5074229;28;20190;-74
2024/01/15 07:39:13;;;;;;;10.00;7.63;;;;;;;1.22;94.62;99797.97;5074398;28;20213;-74
2024/01/15 07:41:40;;;;;;;7.50;6.80;;;;;;;1.14;95.01;99804.78;5074114;28;20295;-74
2024/01/15 07:44:06;;;;;;;7.33;6.97;;;;;;;1.22;95.15;99800.63;5074864;28;20213;-74
2024/01/15 07:46:33;;;;;;;6.77;6.30;;;;;;;1.21;94.70;99790.19;5074079;28;20196;-74
2024/01/15 07:48:59;;;;;;;6.53;6.27;;;;;;;1.18;95.10;99796.53;5074604;28;20263;-74
2024/01/15 07:51:26;;;;;;;7.97;7.33;;;;;;;1.17;95.01;99799.28;5074015;28;20178;-74
2024/01/15 07:53:55;;;;;;;8.20;7.67;;;;;;;1.19;95.26;99798.19;5074237;28;20205;-74
2024/01/15 07:56:21;;;;;;;11.33;8.03;;;;;;;1.24;95.46;99803.09;5074167;28;20189;-75
2024/01/15 07:58:48;;;;;;;11.03;10.10;;;;;;;1.15;95.28;99806.44;5073194;28;20700;-74
2024/01/15 08:01:15;;;;;;;16.57;11.20;;;;;;;1.06;95.66;99807.94;5073781;28;20194;-74
2024/01/15 08:03:41;;;;;;;17.13;11.50;;;;;;;1.11;95.71;99791.81;5073708;28;20206;-74
2024/01/15 08:06:09;;;;;;;19.10;11.63;;;;;;;1.00;96.02;99797.91;5074180;28;20193;-74
2024/01/15 08:08:37;;;;;;;24.93;13.57;;;;;;;1.02;96.63;99797.78;5073395;28;20203;-74
2024/01/15 08:11:04;;;;;;;27.57;14.00;;;;;;;1.02;96.82;99797.78;5074000;28;20669;-74
2024/01/15 08:13:30;;;;;;;25.03;15.00;;;;;;;0.95;97.17;99793.91;5073910;28;20186;-74
2024/01/15 08:15:57;;;;;;;25.50;14.73;;;;;;;0.88;97.37;99793.53;5073588;28;20218;-74
2024/01/15 08:18:24;;;;;;;22.27;14.80;;;;;;;0.93;97.13;99800.13;5073521;28;20637;-74
2024/01/15 08:20:51;;;;;;;21.13;14.63;;;;;;;0.95;97.25;99807.06;5073473;28;20187;-74
2024/01/15 08:23:18;;;;;;;26.27;15.57;;;;;;;0.93;96.89;99805.38;5073710;28;20289;-74
2024/01/15 08:25:44;;;;;;;19.57;13.97;;;;;;;0.90;97.29;99805.63;5073431;28;20183;-74
2024/01/15 08:28:11;;;;;;;23.27;15.10;;;;;;;0.86;97.84;99801.53;5073667;28;20207;-74
2024/01/15 08:30:37;;;;;;;20.03;14.07;;;;;;;0.70;97.64;99795.72;5073647;28;20191;-74
2024/01/15 08:33:07;;;;;;;28.30;14.10;;;;;;;0.70;98.23;99790.47;5073580;28;20649;-74
2024/01/15 08:35:46;;;;;;;20.73;15.03;;;;;;;0.65;97.90;99792.59;5073583;28;20694;-74
2024/01/15 08:38:12;;;;;;;19.83;14.40;;;;;;;0.54;99.11;99794.34;5072601;28;20264;-74
2024/01/15 08:40:39;;;;;;;25.53;14.90;;;;;;;0.60;99.13;99797.34;5073505;28;20182;-74
2024/01/15 08:43:06;;;;;;;23.87;15.70;;;;;;;0.61;99.27;99796.41;5073955;28;20203;-74
2024/01/15 08:45:33;;;;;;;20.20;15.27;;;;;;;0.55;99.13;99793.38;5073218;28;20247;-75
2024/01/15 08:48:00;;;;;;;18.37;14.73;;;;;;;0.55;99.42;99791.59;5073137;28;20202;-74
2024/01/15 08:50:27;;;;;;;21.70;14.43;;;;;;;0.57;99.49;99792.31;5073491;28;20197;-76
2024/01/15 08:52:54;;;;;;;20.20;14.67;;;;;;;0.59;99.46;99797.47;5073400;28;20198;-75
2024/01/15 08:55:22;;;;;;;19.90;14.17;;;;;;;0.58;99.58;99799.25;5073376;28;20233;-75
2024/01/15 08:57:49;;;;;;;16.57;12.90;;;;;;;0.55;99.59;99804.75;5073291;28;20551;-75
2024/01/15 09:00:16;;;;;;;12.93;11.83;;;;;;;0.54;99.66;99803.06;5073121;28;20190;-75
2024/01/15 09:02:43;;;;;;;20.73;12.70;;;;;;;0.56;99.35;99797.69;5072960;28;20178;-75
2024/01/15 09:05:10;;;;;;;13.60;11.10;;;;;;;0.58;99.64;99803.69;5073207;28;20186;-75
2024/01/15 09:07:36;;;;;;;12.17;11.07;;;;;;;0.55;99.79;99796.88;5072959;28;20226;-75
2024/01/15 09:10:03;;;;;;;13.40;9.90;;;;;;;0.56;99.59;99806.41;5073000;28;20190;-75
2024/01/15 09:12:30;;;;;;;10.63;9.77;;;;;;;0.46;99.57;99805.41;5073541;28;20190;-75
2024/01/15 09:14:56;;;;;;;9.97;8.80;;;;;;;0.47;99.85;99803.63;5072930;28;20217;-75
2024/01/15 09:17:23;;;;;;;9.13;8.40;;;;;;;0.51;100.00;99826.13;5072800;28;20587;-75
2024/01/15 09:19:50;;;;;;;8.93;8.40;;;;;;;0.45;99.89;99815.09;5072921;28;20190;-75
2024/01/15 09:22:18;;;;;;;7.27;6.80;;;;;;;0.37;100.00;99819.22;5073283;28;20597;-76
2024/01/15 09:24:45;;;;;;;7.53;7.13;;;;;;;0.35;100.00;99816.69;5073058;28;20252;-76
2024/01/15 09:27:12;;;;;;;7.67;7.13;;;;;;;0.34;100.00;99819.44;5072857;28;20268;-76
2024/01/15 09:29:41;;;;;;;6.23;6.00;;;;;;;0.32;100.00;99813.44;5072722;28;20228;-75
2024/01/15 09:32:08;;;;;;;7.00;6.60;;;;;;;0.28;100.00;99822.50;5073337;28;20199;-75
2024/01/15 09:34:35;;;;;;;7.27;6.30;;;;;;;0.27;100.00;99823.44;5072727;28;20187;-75
2024/01/15 09:37:02;;;;;;;6.87;6.63;;;;;;;0.25;100.00;99825.34;5073278;28;20187;-75
2024/01/15 09:39:30;;;;;;;6.47;5.90;;;;;;;0.23;100.00;99820.19;5072586;28;20209;-75
2024/01/15 09:42:01;;;;;;;6.17;5.90;;;;;;;0.28;100.00;99827.75;5072663;28;20185;-75
2024/01/15 09:44:28;;;;;;;6.80;6.20;;;;;;;0.27;100.00;99805.88;5072662;28;20197;-75
2024/01/15 09:46:56;;;;;;;6.33;5.93;;;;;;;0.28;100.00;99825.13;5072588;28;20695;-75
2024/01/15 09:49:23;;;;;;;6.27;5.73;;;;;;;0.30;100.00;99820.56;5075446;28;20213;-75
2024/01/15 09:51:50;;;;;;;6.37;6.17;;;;;;;0.19;100.00;99816.09;5076902;28;20237;-75
2024/01/15 09:54:32;;;;;;;5.10;5.00;;;;;;;0.22;100.00;99817.66;5076714;28;20182;-76
2024/01/15 09:57:00;;;;;;;5.93;5.83;;;;;;;0.29;100.00;99816.28;5076490;28;20185;-76
2024/01/15 09:59:27;;;;;;;7.23;6.83;;;;;;;0.28;100.00;99822.50;5076118;28;20577;-76
2024/01/15 10:01:55;;;;;;;6.73;6.33;;;;;;;0.33;100.00;99815.13;5076465;28;20553;-76
2024/01/15 10:04:23;;;;;;;7.37;7.17;;;;;;;0.29;100.00;99826.81;5075975;28;20297;-76
2024/01/15 10:06:51;;;;;;;8.00;7.40;;;;;;;0.33;100.00;99823.00;5076331;28;20546;-76
2024/01/15 10:09:18;;;;;;;8.80;8.20;;;;;;;0.33;100.00;99818.59;5076238;28;20217;-75
2024/01/15 10:11:44;;;;;;;8.57;7.90;;;;;;;0.37;100.00;99824.47;5076244;28;20670;-76
2024/01/15 10:14:12;;;;;;;9.17;8.60;;;;;;;0.38;100.00;99821.72;5076252;28;20538;-75
2024/01/15 10:16:40;;;;;;;10.90;9.83;;;;;;;0.37;100.00;99814.78;5075856;28;20226;-75
2024/01/15 10:19:07;;;;;;;11.27;10.07;;;;;;;0.40;100.00;99808.47;5075698;28;20301;-75
2024/01/15 10:21:35;;;;;;;19.73;10.67;;;;;;;0.41;100.00;99802.28;5075832;28;20257;-76
2024/01/15 10:24:03;;;;;;;15.23;11.23;;;;;;;0.44;100.00;99815.19;5076240;28;20251;-75
2024/01/15 10:26:30;;;;;;;16.33;11.97;;;;;;;0.40;100.00;99805.84;5076006;28;20197;-75
2024/01/15 10:28:58;;;;;;;15.43;12.47;;;;;;;0.52;100.00;99812.84;5075722;28;20218;-75
2024/01/15 10:31:25;;;;;;;25.57;12.67;;;;;;;0.57;100.00;99809.88;5075615;28;20704;-76
2024/01/15 10:34:11;;;;;;;14.80;11.93;;;;;;;0.58;100.00;99812.41;5074549;28;20182;-76
2024/01/15 10:36:41;;;;;;;15.53;10.87;;;;;;;0.55;99.64;99819.69;5075841;28;20642;-76
2024/01/15 10:39:08;;;;;;;18.17;11.53;;;;;;;0.49;100.00;99813.06;5075439;28;20198;-76
2024/01/15 10:41:34;;;;;;;16.77;11.90;;;;;;;0.60;99.74;99813.13;5075739;28;20637;-76
2024/01/15 10:44:01;;;;;;;14.57;12.07;;;;;;;0.61;99.54;99814.81;5075284;28;20693;-76
2024/01/15 10:46:28;;;;;;;16.80;12.00;;;;;;;0.64;99.39;99821.63;5075329;28;20187;-76
2024/01/15 10:48:55;;;;;;;15.27;11.60;;;;;;;0.62;99.18;99819.13;5075373;28;20581;-75
2024/01/15 10:51:23;;;;;;;9.87;8.97;;;;;;;0.67;98.87;99819.63;5075193;28;20182;-75
2024/01/15 10:53:50;;;;;;;10.23;9.23;;;;;;;0.70;98.96;99815.94;5075303;28;20214;-75
2024/01/15 10:56:18;;;;;;;8.10;7.60;;;;;;;0.70;98.62;99823.81;5075910;28;20730;-75
2024/01/15 10:58:45;;;;;;;10.03;9.27;;;;;;;0.68;98.56;99816.03;5075021;28;20728;-75
2024/01/15 11:01:13;;;;;;;14.87;8.87;;;;;;;0.76;98.63;99818.13;5074113;28;20187;-75
2024/01/15 11:03:40;;;;;;;9.77;8.83;;;;;;;0.76;98.70;99820.75;5075169;28;20238;-75
2024/01/15 11:06:19;;;;;;;8.33;7.73;;;;;;;0.78;98.25;99821.47;5075227;28;20191;-76
2024/01/15 11:08:51;;;;;;;7.23;6.83;;;;;;;0.83;97.91;99821.97;5074898;28;20562;-75
2024/01/15 11:11:20;;;;;;;9.17;8.33;;;;;;;0.88;97.87;99820.69;5075111;28;20179;-75
2024/01/15 11:13:49;;;;;;;7.83;7.37;;;;;;;0.93;98.10;99825.63;5075094;28;20220;-75
2024/01/15 11:16:16;;;;;;;7.27;6.73;;;;;;;0.99;97.78;99827.78;5074761;28;20194;-76
2024/01/15 11:19:01;;;;;;;6.67;6.13;;;;;;;1.03;97.29;99831.03;5075377;28;20256;-75
2024/01/15 11:21:32;;;;;;;7.47;6.50;;;;;;;0.97;97.72;99807.81;5075214;28;20175;-75
2024/01/15 11:24:02;;;;;;;6.53;5.87;;;;;;;0.94;97.09;99806.22;5074817;28;20199;-76
2024/01/15 11:26:43;;;;;;;6.63;6.20;;;;;;;1.00;96.83;99808.44;5074851;28;20182;-76